Maringouin, Louisiana
Current Conditions -  °F | °C
As of 3:35 PM on Wednesday 26 Nov 2014 (Local Time) from KHZR Reporting Station
Clear Clear  
Wind Chill: 68°   Ceiling: Unl
Heat Index: 68°   Visibility: 10mi
Dew Point: 39°   Wind: 13mph
Humidity: 34%   Direction: 240°WSW
Pressure: 30.16"   Gusts: 21mph
Location:  30.49°N, 91.52°W
Report Text: KHZR 262135Z AUTO 24011G18KT 10SM CLR 20/04 A3016 RMK AO2 T02000037
Loading
Personal Weather Stations






























Interactive Weather Map New forecast layout! Learn more

10-Day Weather Forecast

Advertisements
Track Severe Weather on mobile